Time;durP1;ratioP1;P1;durP2;ratioP2;P2;SDS_P1;SDS_P2;PMS_P1;PMS_P2;Temp;Humidity;BMP_temperature;BMP_pressure;BME280_temperature;BME280_humidity;BME280_pressure;Samples;Min_cycle;Max_cycle;Signal;HPM_P1;HPM_P2
2023/04/01 00:00:53;;;;;;;15.70;6.97;;;;;;;12.29;70.60;64240.66;5034012;28;20793;-55
2023/04/01 00:03:20;;;;;;;17.83;6.90;;;;;;;12.22;71.24;64234.97;5033929;28;20189;-55
2023/04/01 00:05:46;;;;;;;16.50;7.60;;;;;;;12.26;67.75;64237.34;5033941;28;20236;-57
2023/04/01 00:08:11;;;;;;;13.77;7.93;;;;;;;11.79;69.51;64186.41;5033945;28;20186;-55
2023/04/01 00:10:37;;;;;;;14.13;7.50;;;;;;;11.27;70.90;64133.91;5034037;28;20767;-58
2023/04/01 00:13:02;;;;;;;14.53;8.03;;;;;;;11.48;72.34;64154.94;5034097;28;20561;-58
2023/04/01 00:15:28;;;;;;;12.97;7.33;;;;;;;11.53;70.80;64157.88;5034189;28;20210;-58
2023/04/01 00:17:54;;;;;;;10.77;6.67;;;;;;;11.51;71.43;64155.69;5033818;28;20241;-58
2023/04/01 00:20:19;;;;;;;12.00;7.00;;;;;;;11.46;72.87;64150.22;5033957;28;20617;-57
2023/04/01 00:22:46;;;;;;;12.47;6.80;;;;;;;11.37;74.22;64142.88;5033764;28;20189;-58
2023/04/01 00:25:11;;;;;;;10.97;7.20;;;;;;;11.47;75.16;64153.81;5033762;28;20218;-59
2023/04/01 00:27:37;;;;;;;11.33;6.70;;;;;;;11.55;71.52;64162.59;5033860;28;20171;-59
2023/04/01 00:30:03;;;;;;;13.10;6.83;;;;;;;11.48;72.13;64157.44;5033588;28;20813;-56
2023/04/01 00:32:30;;;;;;;10.43;6.70;;;;;;;11.76;70.73;64185.06;5033700;28;20685;-59
2023/04/01 00:34:55;;;;;;;13.60;7.50;;;;;;;11.48;72.90;64154.94;5033636;28;20206;-59
2023/04/01 00:37:21;;;;;;;12.63;7.60;;;;;;;11.57;72.86;64164.78;5033745;28;20197;-56
2023/04/01 00:39:46;;;;;;;14.83;5.80;;;;;;;11.54;71.31;64158.97;5033690;28;20214;-55
2023/04/01 00:42:13;;;;;;;15.10;6.60;;;;;;;11.55;71.95;64162.59;5033411;28;20182;-58
2023/04/01 00:44:39;;;;;;;14.10;6.00;;;;;;;11.59;71.15;64163.91;5014952;28;20206;-55
2023/04/01 00:47:05;;;;;;;11.13;6.47;;;;;;;11.44;71.93;64150.56;5033295;28;20186;-54
2023/04/01 00:49:44;;;;;;;12.50;6.37;;;;;;;11.48;72.71;64152.41;5015774;28;20280;-55
2023/04/01 00:52:13;;;;;;;13.67;6.13;;;;;;;11.50;73.47;64154.03;5034061;28;20277;-54
2023/04/01 00:54:42;;;;;;;13.87;6.90;;;;;;;11.56;73.02;64161.16;5033531;28;20209;-54
2023/04/01 00:57:14;;;;;;;12.10;6.83;;;;;;;11.56;74.09;64163.69;5033281;28;20648;-54
2023/04/01 00:59:47;;;;;;;11.00;6.60;;;;;;;11.59;73.21;64164.47;5015871;28;20216;-54
2023/04/01 01:02:14;;;;;;;10.93;6.40;;;;;;;11.62;72.34;64169.72;5033298;28;20186;-58
2023/04/01 01:04:40;;;;;;;9.47;6.10;;;;;;;11.48;72.01;64152.41;5033485;28;20210;-58
2023/04/01 01:07:36;;;;;;;11.17;5.50;;;;;;;11.40;71.39;64145.63;5033683;28;20232;-58
2023/04/01 01:10:21;;;;;;;10.20;4.90;;;;;;;11.07;72.48;64106.97;5033119;28;20300;-57
2023/04/01 01:13:07;;;;;;;7.50;4.63;;;;;;;11.04;72.02;64104.22;5033512;28;20210;-54
2023/04/01 01:15:36;;;;;;;8.50;4.70;;;;;;;11.09;71.70;64112.19;5015100;28;20218;-54
2023/04/01 01:18:01;;;;;;;7.47;4.30;;;;;;;11.01;71.46;64103.44;5032714;28;20230;-54
2023/04/01 01:20:39;;;;;;;10.60;4.23;;;;;;;11.00;71.09;64099.84;5032741;28;20217;-54
2023/04/01 01:23:31;;;;;;;7.50;3.97;;;;;;;11.11;70.92;64111.34;5032784;28;20197;-55
2023/04/01 01:26:33;;;;;;;8.10;3.90;;;;;;;11.11;71.52;64114.38;5032949;28;20218;-53
2023/04/01 01:29:01;;;;;;;6.77;4.17;;;;;;;11.23;72.05;64125.00;5032603;28;20213;-53
2023/04/01 01:32:03;;;;;;;6.13;3.30;;;;;;;11.39;70.07;64145.06;5032603;28;20783;-53
2023/04/01 01:34:50;;;;;;;7.27;3.53;;;;;;;11.46;67.75;64152.19;5032835;28;20496;-60
2023/04/01 01:37:19;;;;;;;7.17;2.90;;;;;;;11.34;69.91;64136.53;5014944;28;20236;-55
2023/04/01 01:39:56;;;;;;;5.37;3.27;;;;;;;11.35;69.76;64140.16;5032486;28;20206;-54
2023/04/01 01:42:25;;;;;;;7.27;3.47;;;;;;;11.62;69.47;64169.72;5032500;28;20240;-54
2023/04/01 01:44:53;;;;;;;6.80;3.13;;;;;;;11.75;68.05;64184.00;5032656;28;20210;-54
2023/04/01 01:47:22;;;;;;;4.67;3.10;;;;;;;11.79;66.99;64188.38;5031212;28;20221;-55
2023/04/01 01:49:48;;;;;;;7.10;3.43;;;;;;;11.82;65.36;64192.22;5032591;28;20590;-56
2023/04/01 01:52:14;;;;;;;8.93;3.10;;;;;;;11.87;66.63;64196.59;5032471;28;20193;-55
2023/04/01 01:54:49;;;;;;;6.63;3.07;;;;;;;11.93;64.25;64201.19;5032469;28;20214;-56
2023/04/01 01:57:16;;;;;;;5.07;2.97;;;;;;;12.08;62.74;64219.63;5032401;28;20202;-55
2023/04/01 01:59:43;;;;;;;3.77;2.67;;;;;;;12.15;62.43;64224.75;5032454;28;20217;-59
2023/04/01 02:02:12;;;;;;;9.37;3.30;;;;;;;12.02;62.32;64213.56;5032654;28;20244;-54
2023/04/01 02:04:40;;;;;;;9.27;3.30;;;;;;;11.85;63.22;64192.44;5032138;28;20221;-54
2023/04/01 02:07:14;;;;;;;8.10;3.10;;;;;;;11.85;64.14;64191.88;5032317;28;20544;-56
2023/04/01 02:09:40;;;;;;;6.63;2.87;;;;;;;12.12;64.83;64224.00;5032122;28;20599;-60
2023/04/01 02:12:10;;;;;;;6.53;2.90;;;;;;;12.20;63.00;64230.78;5032241;28;20212;-56
2023/04/01 02:14:56;;;;;;;8.37;2.63;;;;;;;12.23;62.64;64233.53;5032338;28;20260;-55
2023/04/01 02:17:26;;;;;;;6.83;3.43;;;;;;;11.99;63.93;64207.22;5032090;28;20186;-55
2023/04/01 02:20:15;;;;;;;8.97;3.17;;;;;;;11.97;63.66;64205.03;5031962;28;20213;-53
2023/04/01 02:22:46;;;;;;;5.97;2.50;;;;;;;11.82;64.32;64189.69;5014114;28;20329;-59
2023/04/01 02:25:16;;;;;;;11.90;3.20;;;;;;;12.03;63.45;64211.59;5031715;28;20243;-58
2023/04/01 02:27:44;;;;;;;4.67;2.53;;;;;;;12.35;62.82;64246.69;5032004;28;20198;-57
2023/04/01 02:30:11;;;;;;;5.90;2.55;;;;;;;12.36;63.45;64248.31;5031970;28;20308;-53
2023/04/01 02:32:39;;;;;;;7.73;3.40;;;;;;;12.15;63.05;64222.78;5014156;28;20201;-55
2023/04/01 02:35:11;;;;;;;8.13;3.10;;;;;;;12.23;62.44;64236.06;5031921;28;20206;-56
2023/04/01 02:37:41;;;;;;;7.77;3.23;;;;;;;12.17;61.47;64227.50;5031813;28;20554;-58
2023/04/01 02:40:09;;;;;;;4.33;2.80;;;;;;;12.10;61.03;64221.81;5031825;28;20218;-58
2023/04/01 02:42:35;;;;;;;4.10;2.60;;;;;;;12.22;62.45;64232.44;5031529;28;20186;-57
2023/04/01 02:45:01;;;;;;;10.00;2.90;;;;;;;12.28;61.53;64242.06;5031628;28;20206;-58
2023/04/01 02:47:26;;;;;;;8.50;3.20;;;;;;;12.24;60.94;64232.09;5031718;28;20675;-59
2023/04/01 02:49:57;;;;;;;8.97;4.00;;;;;;;11.97;62.34;64207.56;5031355;28;20209;-54
2023/04/01 02:52:23;;;;;;;7.20;2.87;;;;;;;12.08;62.80;64217.09;5031442;28;20205;-56
2023/04/01 02:54:49;;;;;;;7.43;3.33;;;;;;;12.23;63.84;64236.06;5031680;28;20562;-56
2023/04/01 02:57:14;;;;;;;6.23;3.30;;;;;;;11.83;64.41;64190.25;5031684;28;20247;-59
2023/04/01 02:59:40;;;;;;;5.77;3.10;;;;;;;11.82;65.04;64192.22;5031576;28;20217;-60
2023/04/01 03:02:06;;;;;;;7.93;3.73;;;;;;;11.68;64.96;64173.78;5031311;28;20269;-59
2023/04/01 03:04:39;;;;;;;7.63;3.40;;;;;;;12.02;65.26;64213.03;5031544;28;20240;-54
2023/04/01 03:07:05;;;;;;;7.07;3.47;;;;;;;11.76;66.80;64182.56;5013320;28;20186;-53
2023/04/01 03:09:31;;;;;;;9.97;4.73;;;;;;;11.86;68.03;64196.03;5012851;28;20218;-55
2023/04/01 03:11:57;;;;;;;10.37;5.70;;;;;;;11.76;68.87;64185.63;5031237;28;20197;-53
2023/04/01 03:14:22;;;;;;;11.13;5.20;;;;;;;11.97;69.69;64205.03;5031222;28;20351;-55
2023/04/01 03:16:48;;;;;;;11.70;4.93;;;;;;;12.07;67.56;64216.00;5031389;28;20186;-54
2023/04/01 03:19:13;;;;;;;11.30;4.43;;;;;;;11.95;67.66;64205.91;5031058;28;20309;-54
2023/04/01 03:21:39;;;;;;;12.03;5.10;;;;;;;11.97;68.46;64202.50;5031421;28;20261;-63
2023/04/01 03:24:05;;;;;;;7.97;4.30;;;;;;;11.78;69.73;64185.31;5029680;28;20205;-57
2023/04/01 03:26:31;;;;;;;8.57;4.10;;;;;;;11.84;70.91;64193.31;5013273;28;20659;-57
2023/04/01 03:28:56;;;;;;;8.73;4.67;;;;;;;11.96;69.78;64203.94;5030761;28;20759;-55
2023/04/01 03:31:22;;;;;;;7.80;4.40;;;;;;;11.46;71.09;64149.66;5030995;28;20261;-57
2023/04/01 03:33:47;;;;;;;7.67;4.63;;;;;;;11.25;70.32;64126.66;5031574;28;20193;-56
2023/04/01 03:36:13;;;;;;;10.37;4.40;;;;;;;11.51;70.49;64158.22;5031064;28;20182;-53
2023/04/01 03:38:40;;;;;;;9.43;3.97;;;;;;;11.77;70.90;64186.75;5031079;28;20190;-56
2023/04/01 03:41:06;;;;;;;8.70;4.73;;;;;;;11.45;70.10;64154.16;5030777;28;20186;-56
2023/04/01 03:43:32;;;;;;;7.83;4.40;;;;;;;11.61;70.57;64169.19;5030893;28;20197;-58
2023/04/01 03:45:58;;;;;;;7.77;4.10;;;;;;;11.93;70.13;64201.19;5030650;28;20206;-58
2023/04/01 03:48:25;;;;;;;11.23;4.97;;;;;;;12.00;69.95;64205.81;5030694;28;20244;-55
2023/04/01 03:50:50;;;;;;;10.20;4.73;;;;;;;11.78;70.64;64187.81;5030818;28;20297;-57
2023/04/01 03:53:16;;;;;;;10.73;4.70;;;;;;;11.92;71.68;64199.56;5030860;28;20629;-57
2023/04/01 03:55:41;;;;;;;9.00;5.30;;;;;;;11.57;71.14;64162.25;5012803;28;20297;-55
2023/04/01 03:58:07;;;;;;;7.37;4.50;;;;;;;11.78;69.74;64185.31;5029466;28;20190;-56
2023/04/01 04:00:32;;;;;;;10.60;4.80;;;;;;;11.87;70.04;64194.06;5031959;28;20237;-54
2023/04/01 04:02:58;;;;;;;10.23;5.37;;;;;;;11.58;70.55;64165.88;5030424;28;20193;-57
2023/04/01 04:05:25;;;;;;;10.40;5.87;;;;;;;11.66;71.14;64172.16;5030228;28;20217;-54
2023/04/01 04:07:52;;;;;;;12.13;7.13;;;;;;;11.50;72.01;64156.56;5030906;28;20506;-53
2023/04/01 04:10:18;;;;;;;13.97;7.30;;;;;;;11.26;72.68;64130.84;5030610;28;20217;-55
2023/04/01 04:12:44;;;;;;;12.83;7.07;;;;;;;11.36;73.34;64139.25;5030489;28;20222;-58
2023/04/01 04:15:10;;;;;;;14.53;7.40;;;;;;;11.55;72.08;64162.06;5030789;28;20272;-57
2023/04/01 04:17:36;;;;;;;13.57;6.03;;;;;;;11.52;71.77;64156.25;5030881;28;20194;-58
2023/04/01 04:20:02;;;;;;;12.33;6.60;;;;;;;11.46;69.77;64150.22;5031204;28;20576;-55
2023/04/01 04:22:33;;;;;;;9.83;5.37;;;;;;;11.44;70.29;64153.06;5034101;28;20190;-57
2023/04/01 04:24:59;;;;;;;9.97;5.87;;;;;;;11.30;71.52;64132.13;5034575;28;20572;-53
2023/04/01 04:27:24;;;;;;;15.13;6.03;;;;;;;11.50;69.67;64152.06;5033728;28;20617;-54
2023/04/01 04:29:49;;;;;;;9.93;5.83;;;;;;;11.52;69.16;64154.28;5033573;28;20249;-55
2023/04/01 04:32:15;;;;;;;10.13;5.60;;;;;;;11.64;69.80;64171.91;5033762;28;20265;-58
2023/04/01 04:34:40;;;;;;;8.40;5.17;;;;;;;11.55;70.13;64160.06;5033870;28;20272;-58
2023/04/01 04:37:06;;;;;;;11.17;4.80;;;;;;;11.68;69.30;64171.81;5016037;28;20276;-57
2023/04/01 04:39:31;;;;;;;8.93;4.00;;;;;;;11.77;69.53;64183.66;5033523;28;20214;-54
2023/04/01 04:41:57;;;;;;;8.73;4.63;;;;;;;11.86;68.58;64195.50;5033456;28;20186;-54
2023/04/01 04:44:22;;;;;;;8.83;4.43;;;;;;;12.03;68.27;64214.13;5033207;28;20213;-54
2023/04/01 04:46:48;;;;;;;8.00;4.10;;;;;;;12.08;67.68;64219.63;5033701;28;20275;-54
2023/04/01 04:49:13;;;;;;;5.80;3.47;;;;;;;12.02;67.55;64213.56;5033500;28;20214;-59
2023/04/01 04:51:38;;;;;;;9.13;4.47;;;;;;;12.16;67.48;64226.41;5033534;28;20185;-55
2023/04/01 04:54:05;;;;;;;6.90;4.00;;;;;;;12.28;66.82;64241.53;5033379;28;20741;-53
2023/04/01 04:56:32;;;;;;;9.30;4.03;;;;;;;12.50;66.01;64263.16;5015550;28;20182;-56
2023/04/01 04:58:58;;;;;;;7.23;3.73;;;;;;;12.49;65.93;64264.56;5033174;28;20228;-53
2023/04/01 05:01:24;;;;;;;9.93;3.90;;;;;;;12.43;64.75;64257.97;5033454;28;20186;-54
2023/04/01 05:03:50;;;;;;;9.93;4.03;;;;;;;12.37;66.53;64251.41;5032852;28;20186;-55
2023/04/01 05:06:16;;;;;;;5.30;3.80;;;;;;;12.51;65.76;64264.78;5033427;28;20190;-54
2023/04/01 05:08:43;;;;;;;23.13;12.40;;;;;;;12.09;66.15;64218.72;5032839;28;20206;-54
2023/04/01 05:11:17;;;;;;;7.50;5.10;;;;;;;11.80;66.10;64190.00;5033134;28;20702;-53
2023/04/01 05:13:44;;;;;;;13.53;5.10;;;;;;;11.82;67.17;64192.22;5032878;28;20660;-54
2023/04/01 05:16:11;;;;;;;12.70;4.97;;;;;;;12.04;66.87;64212.72;5033649;28;20201;-53
2023/04/01 05:18:37;;;;;;;12.70;6.90;;;;;;;11.75;66.95;64184.53;5032862;28;20567;-56
2023/04/01 05:21:02;;;;;;;19.17;10.30;;;;;;;11.25;69.31;64126.66;5031640;28;20187;-54
2023/04/01 05:23:27;;;;;;;11.37;6.23;;;;;;;11.52;69.84;64158.75;5032830;28;20734;-54
2023/04/01 05:25:53;;;;;;;9.50;5.33;;;;;;;11.67;69.93;64175.78;5032640;28;20807;-54
2023/04/01 05:28:20;;;;;;;26.67;12.33;;;;;;;11.32;70.24;64136.84;5032658;28;20190;-55
2023/04/01 05:30:45;;;;;;;18.80;10.37;;;;;;;11.10;70.66;64110.78;5032653;28;20230;-54
2023/04/01 05:33:12;;;;;;;12.57;6.27;;;;;;;11.18;71.00;64119.53;5032639;28;20287;-56
2023/04/01 05:35:37;;;;;;;13.43;5.03;;;;;;;11.47;71.01;64151.31;5032790;28;20336;-54
2023/04/01 05:38:03;;;;;;;11.57;5.23;;;;;;;11.82;68.98;64189.69;5032591;28;20269;-57
2023/04/01 05:40:29;;;;;;;11.10;6.10;;;;;;;11.50;69.15;64157.13;5031300;28;20294;-55
2023/04/01 05:42:55;;;;;;;9.40;5.37;;;;;;;11.51;69.59;64157.69;5032496;28;20194;-55
2023/04/01 05:45:21;;;;;;;9.77;6.00;;;;;;;11.73;69.16;64179.28;5032465;28;20214;-55
2023/04/01 05:47:46;;;;;;;8.27;4.77;;;;;;;11.32;69.33;64134.31;5032467;28;20187;-53
2023/04/01 05:50:12;;;;;;;13.33;6.70;;;;;;;11.07;69.74;64110.00;5032455;28;20260;-53
2023/04/01 05:52:38;;;;;;;7.50;5.10;;;;;;;11.56;71.32;64163.69;5032067;28;20190;-55
2023/04/01 05:55:04;;;;;;;7.83;4.47;;;;;;;11.77;70.72;64183.66;5032412;28;20693;-58
2023/04/01 05:57:30;;;;;;;13.00;5.40;;;;;;;11.96;69.28;64201.41;5031081;28;20194;-56
2023/04/01 05:59:55;;;;;;;11.90;5.73;;;;;;;12.26;66.55;64239.34;5032224;28;20224;-53
2023/04/01 06:02:21;;;;;;;10.80;4.93;;;;;;;12.50;66.25;64265.66;5032200;28;20261;-54
2023/04/01 06:04:46;;;;;;;14.93;5.67;;;;;;;12.56;66.29;64272.25;5032159;28;20248;-55
2023/04/01 06:07:14;;;;;;;7.87;5.33;;;;;;;12.46;65.43;64261.81;5032104;28;20208;-54
2023/04/01 06:09:41;;;;;;;8.73;4.33;;;;;;;12.29;64.67;64242.63;5031966;28;20612;-55
2023/04/01 06:12:43;;;;;;;6.77;4.53;;;;;;;12.19;65.52;64229.13;5032077;28;20205;-59
2023/04/01 06:15:11;;;;;;;10.80;4.93;;;;;;;12.59;65.99;64275.53;5032319;28;20233;-55
2023/04/01 06:17:51;;;;;;;12.23;4.47;;;;;;;13.10;87.13;64331.50;5031933;28;20197;-56
2023/04/01 06:20:17;;;;;;;6.22;3.78;;;;;;;14.78;100.00;64507.34;5031699;28;20316;-56
2023/04/01 06:23:17;;;;;;;13.50;7.75;;;;;;;14.35;65.89;64465.16;5031774;28;20708;-56
2023/04/01 06:25:46;;;;;;;9.20;5.00;;;;;;;13.42;61.39;64363.53;5028414;28;20242;-58
2023/04/01 06:28:37;;;;;;;8.18;4.35;;;;;;;12.90;63.38;64309.00;5031681;28;20244;-58
2023/04/01 06:31:26;;;;;;;10.63;4.60;;;;;;;13.30;63.64;64353.47;5008697;28;20264;-57
2023/04/01 06:34:14;;;;;;;13.25;6.25;;;;;;;13.29;63.95;64354.88;5031901;28;20198;-56
2023/04/01 06:36:46;;;;;;;13.82;4.68;;;;;;;13.46;63.41;64370.47;5031627;28;20680;-55
2023/04/01 06:39:37;;;;;;;13.87;6.10;;;;;;;13.16;64.24;64335.56;5013824;28;20222;-55
2023/04/01 06:42:38;;;;;;;14.18;5.30;;;;;;;13.18;65.72;64342.28;5031356;28;20178;-53
2023/04/01 06:45:36;;;;;;;7.63;4.50;;;;;;;12.54;67.33;64267.53;4970926;28;20231;-54
2023/04/01 06:48:20;;;;;;;10.47;5.00;;;;;;;12.86;66.10;64305.16;5031418;28;20274;-56
2023/04/01 06:51:33;;;;;;;11.53;5.70;;;;;;;12.88;67.56;64309.31;5031561;28;20676;-53
2023/04/01 06:54:05;;;;;;;12.38;6.38;;;;;;;12.66;69.44;64280.69;4977628;28;20224;-53
2023/04/01 06:56:33;;;;;;;6.97;3.67;;;;;;;12.86;68.99;64302.63;5013645;28;20202;-55
2023/04/01 06:58:58;;;;;;;7.63;5.00;;;;;;;13.13;68.89;64334.25;5030673;28;20671;-54
2023/04/01 07:01:35;;;;;;;11.05;4.80;;;;;;;12.97;69.37;64316.69;5031266;28;20197;-53
2023/04/01 07:04:06;;;;;;;10.37;4.23;;;;;;;12.82;70.05;64300.78;5031274;28;20214;-57
2023/04/01 07:06:38;;;;;;;12.23;5.80;;;;;;;12.76;69.99;64293.63;5031340;28;20201;-56
2023/04/01 07:09:10;;;;;;;7.57;5.07;;;;;;;12.54;71.63;64270.06;5031126;28;20276;-53
2023/04/01 07:11:38;;;;;;;11.57;5.37;;;;;;;12.77;71.40;64294.72;5031275;28;20178;-54
2023/04/01 07:14:25;;;;;;;9.50;4.60;;;;;;;13.07;70.13;64328.22;5031145;28;20295;-53
2023/04/01 07:17:04;;;;;;;15.90;4.93;;;;;;;13.26;70.20;64346.53;5031184;28;20182;-53
2023/04/01 07:19:35;;;;;;;11.63;5.03;;;;;;;12.82;71.04;64300.78;5031083;28;20206;-55
2023/04/01 07:22:29;;;;;;;11.23;4.82;;;;;;;12.87;70.92;64303.72;5030998;28;20695;-58
2023/04/01 07:24:57;;;;;;;8.90;5.67;;;;;;;12.70;71.35;64287.59;5023407;28;20419;-57
2023/04/01 07:27:23;;;;;;;10.00;5.70;;;;;;;12.87;71.74;64303.72;5030454;28;20185;-55
2023/04/01 07:29:48;;;;;;;11.20;5.47;;;;;;;12.94;71.54;64313.94;5031179;28;20222;-57
2023/04/01 07:32:39;;;;;;;9.27;5.03;;;;;;;13.17;70.96;64334.13;5029927;28;20273;-59
2023/04/01 07:35:17;;;;;;;7.53;4.17;;;;;;;13.56;68.95;64378.91;5030906;28;20266;-55
2023/04/01 07:37:55;;;;;;;13.37;5.47;;;;;;;13.49;69.14;64371.78;5013098;28;20217;-55
2023/04/01 07:40:32;;;;;;;13.60;6.20;;;;;;;13.53;70.09;64377.59;5030625;28;20213;-53
2023/04/01 07:43:27;;;;;;;11.75;4.80;;;;;;;13.48;68.61;64368.16;5030583;28;20200;-54
2023/04/01 07:46:18;;;;;;;8.87;5.17;;;;;;;13.49;68.17;64371.78;5021586;28;20225;-57
2023/04/01 07:49:04;;;;;;;15.55;5.13;;;;;;;13.52;68.06;64373.97;5030505;28;20260;-56
2023/04/01 07:51:41;;;;;;;8.60;5.67;;;;;;;13.39;68.54;64362.78;5012772;28;20198;-53
2023/04/01 07:54:18;;;;;;;8.73;5.33;;;;;;;13.43;68.38;64367.72;5031440;28;20209;-55
2023/04/01 07:57:12;;;;;;;8.70;4.77;;;;;;;13.80;69.00;64402.19;5033024;28;20189;-52
2023/04/01 08:00:09;;;;;;;7.30;5.00;;;;;;;14.02;68.42;64429.44;5033945;28;20221;-53
2023/04/01 08:03:16;;;;;;;8.87;3.70;;;;;;;14.26;65.87;64453.25;5034065;28;20194;-56
2023/04/01 08:06:04;;;;;;;7.90;4.27;;;;;;;14.22;65.04;64450.84;5033587;28;20209;-57
2023/04/01 08:08:32;;;;;;;9.15;4.82;;;;;;;14.01;65.09;64428.34;5033469;28;20233;-56
2023/04/01 08:11:02;;;;;;;11.00;4.27;;;;;;;13.90;66.23;64415.69;5034765;28;21292;-56
2023/04/01 08:13:43;;;;;;;11.57;6.70;;;;;;;13.78;67.17;64402.50;5034321;28;20238;-59
2023/04/01 08:16:36;;;;;;;13.53;5.33;;;;;;;13.96;67.38;64422.28;5033909;28;20186;-59
2023/04/01 08:19:40;;;;;;;9.40;4.13;;;;;;;14.26;66.25;64458.31;5033535;28;20664;-58
2023/04/01 08:22:18;;;;;;;7.93;4.32;;;;;;;14.35;66.07;64464.59;5009866;28;20577;-54
2023/04/01 08:24:47;;;;;;;9.60;5.07;;;;;;;14.51;65.70;64479.66;5034074;28;20218;-55
2023/04/01 08:27:25;;;;;;;11.57;4.68;;;;;;;14.67;64.91;64497.78;5033863;28;20269;-54
2023/04/01 08:30:06;;;;;;;11.00;4.90;;;;;;;14.75;63.56;64511.09;5033813;28;20212;-58
2023/04/01 08:32:37;;;;;;;11.15;4.60;;;;;;;14.47;62.86;64477.78;5033936;28;20190;-58
2023/04/01 08:35:15;;;;;;;10.98;5.10;;;;;;;14.38;63.15;64468.47;5033302;28;20210;-58
2023/04/01 08:37:43;;;;;;;13.32;4.28;;;;;;;14.27;63.77;64458.88;5033412;28;20173;-57
2023/04/01 08:40:30;;;;;;;10.02;5.28;;;;;;;14.32;63.59;64463.84;5033537;28;20271;-57
2023/04/01 08:43:02;;;;;;;10.18;4.32;;;;;;;14.58;63.67;64492.97;5033669;28;20193;-58
2023/04/01 08:46:07;;;;;;;10.50;4.15;;;;;;;14.86;63.41;64521.22;5033293;28;20270;-53
2023/04/01 08:48:55;;;;;;;11.70;5.80;;;;;;;14.61;63.80;64491.19;5033126;28;20265;-54
2023/04/01 08:51:51;;;;;;;13.93;4.63;;;;;;;14.57;62.29;64488.78;5033912;28;20189;-54
2023/04/01 08:54:36;;;;;;;15.30;4.28;;;;;;;14.57;62.06;64486.78;5033142;28;20308;-54
2023/04/01 08:57:07;;;;;;;8.82;3.90;;;;;;;14.79;61.76;64512.94;5033580;28;20585;-57
2023/04/01 08:59:45;;;;;;;6.05;3.30;;;;;;;15.00;60.33;64534.06;5033250;28;20766;-57
2023/04/01 09:02:23;;;;;;;9.95;3.65;;;;;;;15.13;60.08;64550.88;5033094;28;20229;-54
2023/04/01 09:05:14;;;;;;;8.90;3.97;;;;;;;15.05;58.08;64542.09;5033495;28;20201;-59
2023/04/01 09:08:05;;;;;;;11.45;5.10;;;;;;;15.06;58.36;64545.19;5032844;28;20184;-65
2023/04/01 09:10:50;;;;;;;11.05;4.88;;;;;;;15.16;57.62;64556.16;5024127;28;20703;-54
2023/04/01 09:13:33;;;;;;;6.38;3.30;;;;;;;15.28;57.00;64566.28;5033428;28;20244;-54
2023/04/01 09:16:50;;;;;;;9.15;3.63;;;;;;;15.40;57.96;64576.94;5033225;28;20305;-54
2023/04/01 09:19:21;;;;;;;7.10;3.33;;;;;;;15.59;56.79;64600.94;4972251;28;20230;-53
2023/04/01 09:22:05;;;;;;;4.88;3.83;;;;;;;15.64;56.45;64605.88;5032820;28;20194;-54
2023/04/01 09:24:50;;;;;;;8.85;3.92;;;;;;;15.69;55.28;64606.31;5015336;28;20655;-54
2023/04/01 09:27:30;;;;;;;9.93;3.92;;;;;;;15.64;55.50;64603.91;5033078;28;20583;-55
2023/04/01 09:30:02;;;;;;;7.45;3.65;;;;;;;15.90;56.62;64631.94;5032632;28;20209;-55
2023/04/01 09:32:46;;;;;;;10.82;4.88;;;;;;;15.94;54.89;64641.44;5033169;28;20221;-55
2023/04/01 09:35:31;;;;;;;12.88;7.50;;;;;;;15.95;54.29;64640.00;5034153;28;20220;-57
2023/04/01 09:38:08;;;;;;;9.13;3.30;;;;;;;16.18;52.88;64665.31;5033640;28;20269;-56
2023/04/01 09:41:09;;;;;;;11.48;3.95;;;;;;;16.06;53.34;64651.56;5032766;28;20241;-59
2023/04/01 09:43:47;;;;;;;6.80;3.10;;;;;;;16.26;53.54;64674.13;5032930;28;20193;-57
2023/04/01 09:46:23;;;;;;;5.00;3.13;;;;;;;16.46;53.14;64693.03;5033316;28;20675;-54
2023/04/01 09:49:10;;;;;;;7.95;2.70;;;;;;;16.53;52.36;64703.88;5032393;28;20214;-53
2023/04/01 09:51:49;;;;;;;10.05;4.05;;;;;;;16.59;52.07;64710.47;5033183;28;20217;-54
2023/04/01 09:54:25;;;;;;;10.35;2.95;;;;;;;16.63;51.82;64714.88;5032924;28;20221;-59
2023/04/01 09:57:09;;;;;;;9.18;2.83;;;;;;;16.73;50.56;64725.34;5032621;28;20255;-52
2023/04/01 09:59:56;;;;;;;6.80;2.78;;;;;;;16.86;50.41;64737.13;5032380;28;20291;-57
2023/04/01 10:02:38;;;;;;;4.95;2.63;;;;;;;17.00;51.28;64754.53;5032296;28;20236;-59
2023/04/01 10:05:36;;;;;;;5.90;3.10;;;;;;;16.92;51.78;64743.16;5032606;28;20291;-55
2023/04/01 10:08:52;;;;;;;8.45;3.08;;;;;;;17.05;52.36;64758.03;5032093;28;20273;-57
2023/04/01 10:11:20;;;;;;;9.68;4.95;;;;;;;17.15;51.34;64768.50;5031863;28;20205;-57
2023/04/01 10:13:51;;;;;;;7.05;3.53;;;;;;;17.13;50.04;64766.31;5031562;28;20699;-55
2023/04/01 10:16:53;;;;;;;8.85;3.63;;;;;;;16.95;52.71;64747.00;5031960;28;20248;-58
2023/04/01 10:19:40;;;;;;;5.57;2.60;;;;;;;17.06;52.16;64758.59;5031277;28;20295;-64
2023/04/01 10:22:14;;;;;;;6.75;3.60;;;;;;;16.97;52.00;64748.69;5032105;28;20186;-58
2023/04/01 10:25:04;;;;;;;6.50;3.33;;;;;;;16.99;53.50;64751.41;5032306;28;20213;-61
2023/04/01 10:27:48;;;;;;;8.32;3.72;;;;;;;17.11;52.39;64766.66;5031885;28;20186;-59
2023/04/01 10:30:38;;;;;;;6.25;3.38;;;;;;;17.01;52.01;64756.16;5032217;28;20229;-57
2023/04/01 10:33:45;;;;;;;9.23;3.67;;;;;;;17.13;51.63;64766.31;5031743;28;20197;-58
2023/04/01 10:36:23;;;;;;;9.23;3.88;;;;;;;17.09;52.45;64764.97;5031754;28;20190;-58
2023/04/01 10:39:30;;;;;;;9.77;4.00;;;;;;;16.85;52.25;64735.47;5031686;28;20273;-59
2023/04/01 10:42:26;;;;;;;12.43;4.90;;;;;;;17.03;52.18;64755.81;5031690;28;20193;-57
2023/04/01 10:45:22;;;;;;;7.38;3.50;;;;;;;16.95;52.95;64746.47;5031928;28;20232;-61
2023/04/01 10:48:25;;;;;;;6.47;3.92;;;;;;;16.76;53.45;64729.19;5031498;28;20186;-57
2023/04/01 10:51:12;;;;;;;7.55;3.72;;;;;;;16.68;53.15;64719.84;5031555;28;20225;-58
2023/04/01 10:53:41;;;;;;;8.77;3.97;;;;;;;16.65;52.64;64717.06;5031556;28;20193;-54
2023/04/01 10:56:25;;;;;;;9.40;4.05;;;;;;;16.39;52.96;64685.34;5031265;28;20193;-57
2023/04/01 10:59:15;;;;;;;7.30;3.42;;;;;;;16.44;53.88;64691.38;5031354;28;20194;-57
2023/04/01 11:02:10;;;;;;;9.27;4.22;;;;;;;16.62;52.76;64711.22;5031386;28;20641;-59
2023/04/01 11:05:00;;;;;;;5.35;3.50;;;;;;;16.50;52.56;64700.56;5020049;28;20225;-58
2023/04/01 11:07:53;;;;;;;9.38;3.50;;;;;;;16.54;52.74;64702.41;5031289;28;20233;-60
2023/04/01 11:10:53;;;;;;;6.88;3.00;;;;;;;16.79;52.63;64732.50;5031178;28;20238;-59
2023/04/01 11:13:46;;;;;;;6.70;3.50;;;;;;;16.72;52.10;64719.16;5031299;28;20277;-59
2023/04/01 11:16:24;;;;;;;13.57;4.88;;;;;;;16.80;51.52;64730.50;5031166;28;20214;-57
2023/04/01 11:19:08;;;;;;;9.02;3.88;;;;;;;16.75;52.17;64725.53;5031102;28;20275;-58
2023/04/01 11:22:10;;;;;;;10.75;3.88;;;;;;;16.58;51.28;64711.91;5031115;28;20182;-54
2023/04/01 11:24:50;;;;;;;7.13;3.17;;;;;;;16.31;50.89;64679.63;5030840;28;20262;-57
2023/04/01 11:27:41;;;;;;;13.65;4.07;;;;;;;16.23;51.39;64665.19;5031414;28;20189;-58
2023/04/01 11:30:35;;;;;;;7.47;2.90;;;;;;;16.44;51.20;64693.38;5030611;28;20309;-58
2023/04/01 11:33:14;;;;;;;3.47;1.48;;;;;;;16.50;45.56;64700.03;5031145;28;20197;-56
2023/04/01 11:36:10;;;;;;;10.98;2.28;;;;;;;16.48;45.00;64700.88;5031099;28;20228;-56
2023/04/01 11:38:54;;;;;;;7.18;2.05;;;;;;;16.50;45.00;64700.03;5030571;28;20220;-56
2023/04/01 11:41:21;;;;;;;9.43;2.15;;;;;;;16.48;45.07;64695.25;5013349;28;20600;-54
2023/04/01 11:43:56;;;;;;;3.55;1.65;;;;;;;16.43;46.96;64690.28;5030491;28;20284;-52
2023/04/01 11:46:41;;;;;;;6.32;2.10;;;;;;;15.83;53.45;64624.25;5031178;28;20607;-58
2023/04/01 11:49:06;;;;;;;4.18;1.73;;;;;;;15.30;59.39;64568.47;5030589;28;20241;-58
2023/04/01 11:51:53;;;;;;;7.68;2.42;;;;;;;15.13;69.58;64550.88;5030658;28;20243;-57
2023/04/01 11:54:27;;;;;;;6.65;2.00;;;;;;;15.14;66.65;64549.44;5030799;28;20263;-52
2023/04/01 11:57:17;;;;;;;9.60;2.45;;;;;;;13.77;77.66;64398.91;5030565;28;20319;-54
2023/04/01 11:59:50;;;;;;;7.07;2.42;;;;;;;12.53;90.34;64266.44;5030744;28;20271;-52
2023/04/01 12:02:42;;;;;;;5.67;2.50;;;;;;;11.94;97.64;64202.28;5030443;28;20192;-53
2023/04/01 12:05:16;;;;;;;5.00;2.40;;;;;;;11.57;100.00;64159.72;5030656;28;20252;-52
2023/04/01 12:08:02;;;;;;;5.73;2.57;;;;;;;11.43;100.00;64149.44;5030425;28;20269;-52